createdAt,value
2023-05-07T00:00:32.652Z,490.00
2023-05-07T00:01:32.671Z,492.00
2023-05-07T00:02:32.810Z,491.00
2023-05-07T00:03:32.859Z,490.00
2023-05-07T00:04:32.855Z,490.00
2023-05-07T00:05:32.842Z,488.00
2023-05-07T00:06:32.913Z,487.00
2023-05-07T00:07:33.016Z,488.00
2023-05-07T00:08:32.999Z,484.00
2023-05-07T00:09:33.015Z,484.00
2023-05-07T00:10:33.182Z,486.00
2023-05-07T00:11:34.154Z,488.00
2023-05-07T00:12:33.177Z,487.00
2023-05-07T00:13:33.224Z,487.00
2023-05-07T00:14:33.258Z,486.00
2023-05-07T00:15:33.329Z,483.00
2023-05-07T00:16:33.367Z,481.00
2023-05-07T00:17:33.448Z,483.00
2023-05-07T00:18:33.444Z,482.00
2023-05-07T00:19:33.492Z,481.00
2023-05-07T00:20:35.566Z,480.00
2023-05-07T00:21:33.785Z,483.00
2023-05-07T00:22:33.830Z,486.00
2023-05-07T00:23:33.841Z,487.00
2023-05-07T00:24:33.899Z,488.00
2023-05-07T00:25:33.950Z,488.00
2023-05-07T00:26:33.973Z,490.00
2023-05-07T00:27:34.036Z,490.00
2023-05-07T00:28:34.084Z,489.00
2023-05-07T00:29:34.120Z,486.00
2023-05-07T00:30:34.176Z,485.00
2023-05-07T00:31:34.286Z,485.00
2023-05-07T00:32:34.280Z,487.00
2023-05-07T00:33:34.305Z,488.00
2023-05-07T00:34:34.372Z,487.00
2023-05-07T00:35:34.423Z,486.00
2023-05-07T00:36:34.486Z,485.00
2023-05-07T00:37:34.519Z,486.00
2023-05-07T00:38:34.544Z,484.00
2023-05-07T00:39:34.598Z,482.00
2023-05-07T00:40:34.673Z,481.00
2023-05-07T00:41:34.721Z,480.00
2023-05-07T00:42:34.739Z,482.00
2023-05-07T00:43:34.797Z,485.00
2023-05-07T00:44:34.838Z,487.00
2023-05-07T00:45:34.920Z,489.00
2023-05-07T00:46:35.144Z,491.00
2023-05-07T00:47:35.045Z,493.00
2023-05-07T00:48:35.046Z,493.00
2023-05-07T00:49:35.099Z,492.00
2023-05-07T00:50:35.157Z,492.00
2023-05-07T00:51:35.215Z,492.00
2023-05-07T00:52:35.280Z,491.00
2023-05-07T00:53:35.327Z,487.00
2023-05-07T00:54:35.386Z,486.00
2023-05-07T00:55:35.423Z,484.00
2023-05-07T00:56:35.483Z,485.00
2023-05-07T00:57:35.604Z,486.00
2023-05-07T00:58:35.594Z,486.00
2023-05-07T00:59:35.658Z,485.00
2023-05-07T01:00:35.715Z,488.00
2023-05-07T01:01:35.846Z,489.00
2023-05-07T01:02:35.890Z,488.00
2023-05-07T01:03:35.858Z,486.00
2023-05-07T01:04:36.052Z,485.00
2023-05-07T01:05:35.975Z,485.00
2023-05-07T01:06:36.011Z,482.00
2023-05-07T01:07:36.058Z,481.00
2023-05-07T01:08:36.148Z,480.00
2023-05-07T01:09:36.385Z,478.00
2023-05-07T01:10:36.223Z,480.00
2023-05-07T01:11:36.248Z,479.00
2023-05-07T01:12:36.376Z,476.00
2023-05-07T01:13:36.374Z,474.00
2023-05-07T01:14:36.434Z,476.00
2023-05-07T01:15:36.466Z,476.00
2023-05-07T01:16:36.552Z,474.00
2023-05-07T01:17:36.610Z,473.00
2023-05-07T01:18:36.665Z,474.00
2023-05-07T01:19:36.701Z,476.00
2023-05-07T01:20:36.751Z,477.00
2023-05-07T01:21:36.799Z,480.00
2023-05-07T01:22:36.860Z,482.00
2023-05-07T01:23:36.930Z,487.00
2023-05-07T01:24:36.972Z,491.00
2023-05-07T01:25:37.038Z,493.00
2023-05-07T01:26:37.098Z,491.00
2023-05-07T01:27:37.147Z,492.00
2023-05-07T01:28:37.219Z,493.00
2023-05-07T01:29:37.266Z,492.00
2023-05-07T01:30:37.308Z,491.00
2023-05-07T01:31:37.459Z,488.00
2023-05-07T01:32:37.486Z,487.00
2023-05-07T01:33:37.482Z,488.00
2023-05-07T01:34:37.525Z,486.00
2023-05-07T01:35:37.593Z,485.00
2023-05-07T01:36:37.658Z,484.00
2023-05-07T01:37:37.702Z,484.00
2023-05-07T01:38:37.765Z,486.00
2023-05-07T01:39:37.806Z,485.00
2023-05-07T01:40:37.861Z,489.00
2023-05-07T01:41:37.955Z,488.00
2023-05-07T01:42:37.977Z,487.00
2023-05-07T01:43:38.103Z,483.00
2023-05-07T01:44:38.084Z,484.00
2023-05-07T01:45:38.178Z,483.00
2023-05-07T01:46:38.267Z,485.00
2023-05-07T01:47:38.318Z,484.00
2023-05-07T01:48:38.356Z,484.00
2023-05-07T01:49:38.367Z,483.00
2023-05-07T01:50:38.438Z,486.00
2023-05-07T01:51:38.505Z,487.00
2023-05-07T01:52:38.600Z,488.00
2023-05-07T01:53:38.612Z,486.00
2023-05-07T01:54:38.687Z,486.00
2023-05-07T01:55:38.751Z,489.00
2023-05-07T01:56:38.874Z,489.00
2023-05-07T01:57:38.879Z,489.00
2023-05-07T01:58:38.957Z,490.00
2023-05-07T01:59:39.071Z,489.00
2023-05-07T02:00:39.093Z,489.00
2023-05-07T02:01:39.200Z,486.00
2023-05-07T02:02:39.386Z,485.00
2023-05-07T02:03:39.368Z,486.00
2023-05-07T02:04:39.327Z,484.00
2023-05-07T02:05:39.373Z,483.00
2023-05-07T02:06:39.436Z,487.00
2023-05-07T02:07:39.523Z,487.00
2023-05-07T02:08:39.565Z,491.00
2023-05-07T02:09:39.612Z,489.00
2023-05-07T02:10:39.671Z,488.00
2023-05-07T02:11:39.733Z,486.00
2023-05-07T02:12:39.810Z,487.00
2023-05-07T02:13:39.852Z,488.00
2023-05-07T02:14:39.894Z,488.00
2023-05-07T02:15:40.020Z,488.00
2023-05-07T02:16:40.109Z,490.00
2023-05-07T02:17:40.468Z,490.00
2023-05-07T02:18:40.147Z,491.00
2023-05-07T02:19:40.226Z,488.00
2023-05-07T02:20:40.275Z,486.00
2023-05-07T02:21:40.298Z,485.00
2023-05-07T02:22:40.377Z,486.00
2023-05-07T02:23:40.438Z,485.00
2023-05-07T02:24:40.469Z,486.00
2023-05-07T02:25:40.551Z,487.00
2023-05-07T02:26:40.594Z,488.00
2023-05-07T02:27:40.674Z,490.00
2023-05-07T02:28:40.707Z,491.00
2023-05-07T02:29:40.790Z,490.00
2023-05-07T02:30:40.828Z,492.00
2023-05-07T02:31:41.033Z,494.00
2023-05-07T02:32:41.025Z,495.00
2023-05-07T02:33:41.002Z,496.00
2023-05-07T02:34:41.063Z,496.00
2023-05-07T02:35:41.106Z,495.00
2023-05-07T02:36:41.188Z,494.00
2023-05-07T02:37:41.248Z,493.00
2023-05-07T02:38:41.285Z,493.00
2023-05-07T02:39:41.338Z,496.00
2023-05-07T02:40:41.406Z,498.00
2023-05-07T02:41:41.460Z,498.00
2023-05-07T02:42:41.565Z,495.00
2023-05-07T02:43:41.564Z,495.00
2023-05-07T02:44:41.653Z,497.00
2023-05-07T02:45:41.733Z,498.00
2023-05-07T02:46:41.752Z,497.00
2023-05-07T02:47:41.942Z,500.00
2023-05-07T02:48:41.878Z,501.00
2023-05-07T02:49:41.895Z,498.00
2023-05-07T02:50:41.962Z,497.00
2023-05-07T02:51:42.045Z,497.00
2023-05-07T02:52:42.067Z,498.00
2023-05-07T02:53:42.152Z,497.00
2023-05-07T02:54:42.191Z,497.00
2023-05-07T02:55:42.247Z,497.00
2023-05-07T02:56:42.311Z,496.00
2023-05-07T02:57:42.368Z,496.00
2023-05-07T02:58:42.400Z,495.00
2023-05-07T02:59:42.463Z,495.00
2023-05-07T03:00:42.530Z,493.00
2023-05-07T03:01:42.656Z,497.00
2023-05-07T03:02:42.691Z,499.00
2023-05-07T03:03:42.745Z,499.00
2023-05-07T03:04:42.794Z,498.00
2023-05-07T03:05:42.839Z,498.00
2023-05-07T03:06:42.895Z,499.00
2023-05-07T03:07:42.977Z,501.00
2023-05-07T03:08:43.008Z,499.00
2023-05-07T03:09:43.072Z,501.00
2023-05-07T03:10:43.122Z,502.00
2023-05-07T03:11:43.184Z,503.00
2023-05-07T03:12:43.313Z,503.00
2023-05-07T03:13:43.391Z,501.00
2023-05-07T03:14:43.368Z,500.00
2023-05-07T03:15:43.412Z,501.00
2023-05-07T03:16:43.456Z,502.00
2023-05-07T03:17:43.571Z,500.00
2023-05-07T03:18:43.680Z,501.00
2023-05-07T03:19:43.703Z,499.00
2023-05-07T03:20:43.756Z,500.00
2023-05-07T03:21:43.772Z,500.00
2023-05-07T03:22:43.826Z,500.00
2023-05-07T03:23:43.876Z,501.00
2023-05-07T03:24:43.938Z,500.00
2023-05-07T03:25:43.999Z,499.00
2023-05-07T03:26:44.058Z,502.00
2023-05-07T03:27:44.141Z,501.00
2023-05-07T03:28:44.206Z,502.00
2023-05-07T03:29:44.249Z,501.00
2023-05-07T03:30:44.313Z,502.00
2023-05-07T03:31:44.420Z,503.00
2023-05-07T03:32:44.445Z,502.00
2023-05-07T03:33:44.496Z,501.00
2023-05-07T03:34:44.545Z,500.00
2023-05-07T03:35:44.660Z,504.00
2023-05-07T03:36:44.690Z,503.00
2023-05-07T03:37:44.760Z,502.00
2023-05-07T03:38:44.792Z,502.00
2023-05-07T03:39:44.853Z,500.00
2023-05-07T03:40:44.906Z,502.00
2023-05-07T03:41:45.070Z,502.00
2023-05-07T03:42:45.119Z,501.00
2023-05-07T03:43:45.098Z,503.00
2023-05-07T03:44:45.143Z,502.00
2023-05-07T03:45:45.201Z,502.00
2023-05-07T03:46:45.359Z,500.00
2023-05-07T03:47:45.338Z,495.00
2023-05-07T03:48:45.372Z,495.00
2023-05-07T03:49:45.433Z,498.00
2023-05-07T03:50:45.484Z,500.00
2023-05-07T03:51:45.649Z,501.00
2023-05-07T03:52:45.613Z,500.00
2023-05-07T03:53:45.683Z,501.00
2023-05-07T03:54:45.717Z,500.00
2023-05-07T03:55:45.770Z,498.00
2023-05-07T03:56:45.837Z,500.00
2023-05-07T03:57:45.908Z,503.00
2023-05-07T03:58:45.929Z,502.00
2023-05-07T03:59:45.989Z,503.00
2023-05-07T04:00:46.031Z,503.00
2023-05-07T04:01:46.101Z,504.00
2023-05-07T04:02:46.240Z,503.00
2023-05-07T04:03:46.243Z,503.00
2023-05-07T04:04:46.237Z,502.00
2023-05-07T04:05:46.275Z,504.00
2023-05-07T04:06:46.302Z,503.00
2023-05-07T04:07:46.423Z,500.00
2023-05-07T04:08:46.382Z,500.00
2023-05-07T04:09:46.451Z,502.00
2023-05-07T04:10:46.500Z,503.00
2023-05-07T04:11:46.512Z,507.00
2023-05-07T04:12:46.615Z,506.00
2023-05-07T04:13:46.604Z,507.00
2023-05-07T04:14:46.679Z,507.00
2023-05-07T04:15:46.727Z,505.00
2023-05-07T04:16:46.916Z,504.00
2023-05-07T04:17:46.869Z,503.00
2023-05-07T04:18:46.912Z,502.00
2023-05-07T04:19:46.991Z,503.00
2023-05-07T04:20:47.066Z,506.00
2023-05-07T04:21:47.085Z,507.00
2023-05-07T04:22:47.137Z,508.00
2023-05-07T04:23:47.168Z,509.00
2023-05-07T04:24:47.222Z,508.00
2023-05-07T04:25:47.285Z,505.00
2023-05-07T04:26:47.320Z,506.00
2023-05-07T04:27:47.342Z,506.00
2023-05-07T04:28:47.344Z,507.00
2023-05-07T04:29:47.366Z,507.00
2023-05-07T04:30:47.409Z,504.00
2023-05-07T04:31:47.477Z,502.00
2023-05-07T04:32:47.525Z,501.00
2023-05-07T04:33:47.544Z,499.00
2023-05-07T04:34:47.606Z,498.00
2023-05-07T04:35:47.653Z,500.00
2023-05-07T04:36:47.695Z,501.00
2023-05-07T04:37:47.761Z,499.00
2023-05-07T04:38:47.788Z,500.00
2023-05-07T04:39:47.903Z,499.00
2023-05-07T04:40:47.899Z,502.00
2023-05-07T04:41:47.963Z,502.00
2023-05-07T04:42:48.382Z,502.00
2023-05-07T04:43:48.107Z,503.00
2023-05-07T04:44:48.164Z,505.00
2023-05-07T04:45:48.260Z,504.00
2023-05-07T04:46:48.271Z,503.00
2023-05-07T04:47:48.390Z,505.00
2023-05-07T04:48:48.408Z,506.00
2023-05-07T04:49:48.463Z,504.00
2023-05-07T04:50:48.516Z,503.00
2023-05-07T04:51:48.582Z,501.00
2023-05-07T04:52:48.663Z,503.00
2023-05-07T04:53:48.720Z,502.00
2023-05-07T04:54:48.771Z,502.00
2023-05-07T04:55:48.896Z,503.00
2023-05-07T04:56:48.971Z,502.00
2023-05-07T04:57:49.057Z,505.00
2023-05-07T04:58:49.071Z,506.00
2023-05-07T04:59:49.106Z,506.00
2023-05-07T05:00:49.166Z,507.00
2023-05-07T05:01:49.247Z,508.00
2023-05-07T05:02:49.425Z,507.00
2023-05-07T05:03:49.361Z,505.00
2023-05-07T05:04:49.371Z,505.00
2023-05-07T05:05:49.426Z,504.00
2023-05-07T05:06:49.472Z,502.00
2023-05-07T05:07:49.518Z,503.00
2023-05-07T05:08:49.582Z,502.00
2023-05-07T05:09:49.619Z,504.00
2023-05-07T05:10:49.650Z,503.00
2023-05-07T05:11:49.709Z,502.00
2023-05-07T05:12:49.797Z,505.00
2023-05-07T05:13:49.784Z,505.00
2023-05-07T05:14:49.857Z,506.00
2023-05-07T05:15:49.916Z,508.00
2023-05-07T05:16:49.929Z,507.00
2023-05-07T05:17:50.005Z,507.00
2023-05-07T05:18:50.030Z,506.00
2023-05-07T05:19:50.047Z,505.00
2023-05-07T05:20:50.111Z,503.00
2023-05-07T05:21:50.153Z,501.00
2023-05-07T05:22:50.193Z,501.00
2023-05-07T05:23:50.238Z,503.00
2023-05-07T05:24:50.276Z,505.00
2023-05-07T05:25:50.316Z,505.00
2023-05-07T05:26:50.359Z,506.00
2023-05-07T05:27:50.440Z,508.00
2023-05-07T05:28:50.402Z,507.00
2023-05-07T05:29:50.458Z,507.00
2023-05-07T05:30:50.488Z,507.00
2023-05-07T05:31:50.594Z,506.00
2023-05-07T05:32:50.594Z,507.00
2023-05-07T05:33:50.589Z,508.00
2023-05-07T05:34:50.641Z,508.00
2023-05-07T05:35:50.688Z,508.00
2023-05-07T05:36:50.840Z,508.00
2023-05-07T05:37:50.979Z,505.00
2023-05-07T05:38:51.093Z,504.00
2023-05-07T05:39:51.231Z,502.00
2023-05-07T05:40:51.386Z,504.00
2023-05-07T05:41:51.508Z,510.00
2023-05-07T05:42:51.624Z,511.00
2023-05-07T05:43:51.826Z,510.00
2023-05-07T05:44:51.897Z,510.00
2023-05-07T05:45:52.153Z,512.00
2023-05-07T05:46:52.419Z,512.00
2023-05-07T05:47:52.480Z,513.00
2023-05-07T05:48:52.608Z,515.00
2023-05-07T05:49:52.713Z,519.00
2023-05-07T05:50:52.856Z,519.00
2023-05-07T05:51:53.017Z,518.00
2023-05-07T05:52:53.155Z,518.00
2023-05-07T05:53:53.262Z,518.00
2023-05-07T05:54:53.409Z,517.00
2023-05-07T05:55:53.541Z,515.00
2023-05-07T05:56:53.696Z,515.00
2023-05-07T05:57:53.855Z,514.00
2023-05-07T05:58:54.077Z,515.00
2023-05-07T05:59:54.105Z,518.00
2023-05-07T06:00:54.242Z,518.00
2023-05-07T06:01:54.386Z,518.00
2023-05-07T06:02:54.448Z,518.00
2023-05-07T06:03:54.570Z,518.00
2023-05-07T06:04:54.796Z,518.00
2023-05-07T06:05:54.827Z,517.00
2023-05-07T06:06:55.000Z,520.00
2023-05-07T06:07:55.165Z,521.00
2023-05-07T06:08:55.258Z,520.00
2023-05-07T06:09:55.232Z,519.00
2023-05-07T06:10:55.237Z,521.00
2023-05-07T06:11:55.258Z,520.00
2023-05-07T06:12:55.347Z,519.00
2023-05-07T06:13:55.274Z,520.00
2023-05-07T06:14:55.391Z,520.00
2023-05-07T06:15:55.405Z,522.00
2023-05-07T06:16:55.523Z,522.00
2023-05-07T06:17:55.604Z,523.00
2023-05-07T06:18:55.633Z,522.00
2023-05-07T06:19:55.682Z,519.00
2023-05-07T06:20:55.732Z,518.00
2023-05-07T06:21:55.785Z,518.00
2023-05-07T06:22:55.870Z,519.00
2023-05-07T06:23:55.923Z,519.00
2023-05-07T06:24:56.043Z,519.00
2023-05-07T06:25:56.032Z,521.00
2023-05-07T06:26:56.109Z,521.00
2023-05-07T06:27:56.144Z,521.00
2023-05-07T06:28:56.134Z,521.00
2023-05-07T06:29:56.180Z,521.00
2023-05-07T06:30:56.322Z,519.00
2023-05-07T06:31:56.421Z,518.00
2023-05-07T06:32:56.433Z,516.00
2023-05-07T06:33:56.406Z,515.00
2023-05-07T06:34:56.373Z,515.00
2023-05-07T06:35:56.439Z,515.00
2023-05-07T06:36:56.487Z,515.00
2023-05-07T06:37:56.575Z,514.00
2023-05-07T06:38:56.543Z,513.00
2023-05-07T06:39:57.565Z,512.00
2023-05-07T06:40:56.652Z,511.00
2023-05-07T06:41:56.613Z,511.00
2023-05-07T06:42:56.626Z,512.00
2023-05-07T06:43:56.572Z,513.00
2023-05-07T06:44:56.562Z,514.00
2023-05-07T06:45:56.593Z,512.00
2023-05-07T06:46:56.656Z,511.00
2023-05-07T06:47:56.585Z,510.00
2023-05-07T06:48:56.547Z,507.00
2023-05-07T06:49:56.540Z,508.00
2023-05-07T06:50:56.528Z,508.00
2023-05-07T06:51:56.530Z,509.00
2023-05-07T06:52:56.504Z,508.00
2023-05-07T06:53:56.495Z,506.00
2023-05-07T06:54:56.504Z,505.00
2023-05-07T06:55:56.495Z,505.00
2023-05-07T06:56:56.475Z,503.00
2023-05-07T06:57:56.498Z,504.00
2023-05-07T06:58:56.452Z,506.00
2023-05-07T06:59:56.442Z,506.00
2023-05-07T07:00:56.463Z,504.00
2023-05-07T07:01:56.565Z,504.00
2023-05-07T07:02:56.523Z,504.00
2023-05-07T07:03:56.461Z,503.00
2023-05-07T07:04:56.470Z,506.00
2023-05-07T07:05:56.412Z,504.00
2023-05-07T07:06:56.404Z,505.00
2023-05-07T07:07:56.414Z,505.00
2023-05-07T07:08:56.401Z,503.00
2023-05-07T07:09:56.378Z,503.00
2023-05-07T07:10:56.401Z,504.00
2023-05-07T07:11:56.400Z,506.00
2023-05-07T07:12:56.453Z,506.00
2023-05-07T07:13:56.356Z,503.00
2023-05-07T07:14:56.336Z,503.00
2023-05-07T07:15:56.381Z,505.00
2023-05-07T07:16:56.398Z,504.00
2023-05-07T07:17:56.386Z,503.00
2023-05-07T07:18:56.362Z,503.00
2023-05-07T07:19:56.407Z,505.00
2023-05-07T07:20:56.338Z,508.00
2023-05-07T07:21:56.342Z,509.00
2023-05-07T07:22:56.334Z,510.00
2023-05-07T07:23:56.365Z,508.00
2023-05-07T07:24:56.410Z,506.00
2023-05-07T07:25:56.366Z,505.00
2023-05-07T07:26:56.467Z,502.00
2023-05-07T07:27:56.448Z,503.00
2023-05-07T07:28:56.414Z,502.00
2023-05-07T07:29:56.419Z,505.00
2023-05-07T07:30:56.456Z,504.00
2023-05-07T07:31:56.479Z,505.00
2023-05-07T07:32:56.545Z,506.00
2023-05-07T07:33:56.565Z,506.00
2023-05-07T07:34:56.581Z,503.00
2023-05-07T07:35:56.539Z,503.00
2023-05-07T07:36:56.553Z,502.00
2023-05-07T07:37:56.609Z,504.00
2023-05-07T07:38:56.616Z,506.00
2023-05-07T07:39:56.580Z,506.00
2023-05-07T07:40:56.606Z,503.00
2023-05-07T07:41:56.600Z,506.00
2023-05-07T07:42:56.635Z,503.00
2023-05-07T07:43:56.629Z,501.00
2023-05-07T07:44:56.649Z,502.00
2023-05-07T07:45:56.638Z,499.00
2023-05-07T07:46:56.787Z,498.00
2023-05-07T07:47:56.750Z,497.00
2023-05-07T07:48:56.725Z,495.00
2023-05-07T07:49:56.699Z,494.00
2023-05-07T07:50:56.738Z,493.00
2023-05-07T07:51:56.725Z,495.00
2023-05-07T07:52:56.751Z,497.00
2023-05-07T07:53:56.856Z,498.00
2023-05-07T07:54:56.843Z,498.00
2023-05-07T07:55:59.441Z,501.00
2023-05-07T07:56:56.786Z,500.00
2023-05-07T07:57:56.724Z,499.00
2023-05-07T07:58:56.746Z,498.00
2023-05-07T07:59:56.796Z,498.00
2023-05-07T08:00:56.723Z,495.00
2023-05-07T08:01:56.796Z,493.00
2023-05-07T08:02:56.939Z,494.00
2023-05-07T08:03:56.751Z,495.00
2023-05-07T08:04:56.803Z,493.00
2023-05-07T08:05:56.686Z,491.00
2023-05-07T08:06:56.670Z,491.00
2023-05-07T08:07:56.690Z,490.00
2023-05-07T08:08:56.654Z,489.00
2023-05-07T08:09:56.639Z,488.00
2023-05-07T08:10:56.657Z,490.00
2023-05-07T08:11:56.658Z,493.00
2023-05-07T08:12:56.724Z,492.00
2023-05-07T08:13:56.620Z,493.00
2023-05-07T08:14:56.681Z,492.00
2023-05-07T08:15:56.603Z,491.00
2023-05-07T08:16:56.668Z,488.00
2023-05-07T08:17:56.667Z,486.00
2023-05-07T08:18:56.590Z,485.00
2023-05-07T08:19:56.595Z,486.00
2023-05-07T08:20:56.598Z,486.00
2023-05-07T08:21:56.628Z,485.00
2023-05-07T08:22:56.702Z,485.00
2023-05-07T08:23:56.582Z,485.00
2023-05-07T08:24:56.573Z,484.00
2023-05-07T08:25:56.542Z,483.00
2023-05-07T08:26:56.556Z,484.00
2023-05-07T08:27:56.550Z,484.00
2023-05-07T08:28:56.542Z,484.00
2023-05-07T08:29:56.553Z,486.00
2023-05-07T08:30:56.616Z,487.00
2023-05-07T08:31:56.524Z,485.00
2023-05-07T08:32:56.584Z,484.00
2023-05-07T08:33:56.615Z,485.00
2023-05-07T08:34:56.500Z,483.00
2023-05-07T08:35:56.480Z,483.00
2023-05-07T08:36:56.498Z,484.00
2023-05-07T08:37:56.506Z,483.00
2023-05-07T08:38:56.513Z,479.00
2023-05-07T08:39:56.481Z,478.00
2023-05-07T08:40:56.491Z,477.00
2023-05-07T08:41:56.577Z,476.00
2023-05-07T08:42:56.595Z,475.00
2023-05-07T08:43:56.615Z,473.00
2023-05-07T08:44:56.661Z,473.00
2023-05-07T08:45:56.792Z,471.00
2023-05-07T08:46:56.707Z,472.00
2023-05-07T08:47:56.760Z,472.00
2023-05-07T08:48:56.857Z,473.00
2023-05-07T08:49:56.850Z,474.00
2023-05-07T08:50:56.871Z,473.00
2023-05-07T08:51:56.896Z,474.00
2023-05-07T08:52:56.910Z,473.00
2023-05-07T08:53:56.907Z,471.00
2023-05-07T08:54:56.883Z,472.00
2023-05-07T08:55:56.937Z,473.00
2023-05-07T08:56:56.956Z,471.00
2023-05-07T08:57:56.963Z,471.00
2023-05-07T08:58:56.998Z,472.00
2023-05-07T08:59:57.010Z,472.00
2023-05-07T09:00:57.013Z,473.00
2023-05-07T09:01:57.132Z,474.00
2023-05-07T09:02:57.132Z,476.00
2023-05-07T09:03:57.216Z,473.00
2023-05-07T09:04:57.121Z,473.00
2023-05-07T09:05:58.091Z,472.00
2023-05-07T09:06:57.133Z,473.00
2023-05-07T09:07:58.309Z,472.00
2023-05-07T09:08:57.176Z,471.00
2023-05-07T09:09:57.163Z,471.00
2023-05-07T09:10:57.215Z,471.00
2023-05-07T09:11:57.195Z,473.00
2023-05-07T09:12:57.661Z,475.00
2023-05-07T09:13:57.330Z,474.00
2023-05-07T09:14:57.187Z,473.00
2023-05-07T09:15:57.212Z,472.00
2023-05-07T09:16:57.200Z,471.00
2023-05-07T09:17:57.256Z,471.00
2023-05-07T09:18:57.239Z,474.00
2023-05-07T09:19:57.287Z,473.00
2023-05-07T09:20:57.244Z,473.00
2023-05-07T09:21:57.239Z,473.00
2023-05-07T09:22:57.241Z,473.00
2023-05-07T09:23:57.256Z,471.00
2023-05-07T09:24:57.261Z,469.00
2023-05-07T09:25:57.317Z,468.00
2023-05-07T09:26:57.292Z,467.00
2023-05-07T09:27:57.320Z,467.00
2023-05-07T09:28:57.349Z,465.00
2023-05-07T09:29:57.332Z,463.00
2023-05-07T09:30:57.331Z,463.00
2023-05-07T09:31:57.371Z,465.00
2023-05-07T09:32:57.457Z,463.00
2023-05-07T09:33:57.328Z,465.00
2023-05-07T09:34:57.347Z,466.00
2023-05-07T09:35:57.368Z,467.00
2023-05-07T09:36:57.346Z,467.00
2023-05-07T09:37:57.358Z,468.00
2023-05-07T09:38:57.352Z,466.00
2023-05-07T09:39:57.362Z,465.00
2023-05-07T09:40:57.364Z,464.00
2023-05-07T09:41:57.356Z,463.00
2023-05-07T09:42:57.458Z,464.00
2023-05-07T09:43:57.342Z,462.00
2023-05-07T09:44:57.350Z,464.00
2023-05-07T09:45:57.416Z,463.00
2023-05-07T09:46:57.356Z,466.00
2023-05-07T09:47:57.417Z,466.00
2023-05-07T09:48:57.359Z,466.00
2023-05-07T09:49:57.353Z,466.00
2023-05-07T09:50:57.340Z,468.00
2023-05-07T09:51:57.329Z,468.00
2023-05-07T09:52:57.328Z,468.00
2023-05-07T09:53:57.329Z,469.00
2023-05-07T09:54:57.323Z,469.00
2023-05-07T09:55:57.319Z,467.00
2023-05-07T09:56:57.330Z,465.00
2023-05-07T09:57:57.343Z,466.00
2023-05-07T09:58:57.401Z,466.00
2023-05-07T09:59:57.354Z,467.00
2023-05-07T10:00:57.404Z,468.00
2023-05-07T10:01:57.384Z,470.00
2023-05-07T10:02:57.461Z,469.00
2023-05-07T10:03:57.496Z,467.00
2023-05-07T10:04:57.398Z,467.00
2023-05-07T10:05:57.385Z,465.00
2023-05-07T10:06:57.413Z,464.00
2023-05-07T10:07:57.395Z,464.00
2023-05-07T10:08:57.409Z,462.00
2023-05-07T10:09:57.403Z,461.00
2023-05-07T10:10:57.404Z,462.00
2023-05-07T10:11:57.388Z,465.00
2023-05-07T10:12:57.425Z,467.00
2023-05-07T10:13:57.407Z,467.00
2023-05-07T10:14:57.454Z,467.00
2023-05-07T10:15:57.403Z,468.00
2023-05-07T10:16:57.497Z,469.00
2023-05-07T10:17:57.469Z,469.00
2023-05-07T10:18:57.412Z,466.00
2023-05-07T10:19:57.444Z,465.00
2023-05-07T10:20:57.450Z,463.00
2023-05-07T10:21:57.458Z,463.00
2023-05-07T10:22:57.426Z,464.00
2023-05-07T10:23:57.423Z,462.00
2023-05-07T10:24:57.438Z,460.00
2023-05-07T10:26:01.009Z,458.00
2023-05-07T10:26:57.456Z,459.00
2023-05-07T10:27:57.405Z,460.00
2023-05-07T10:28:57.396Z,462.00
2023-05-07T10:29:57.378Z,463.00
2023-05-07T10:30:57.498Z,463.00
2023-05-07T10:31:57.380Z,462.00
2023-05-07T10:32:57.369Z,462.00
2023-05-07T10:33:57.363Z,460.00
2023-05-07T10:34:57.366Z,460.00
2023-05-07T10:35:57.340Z,459.00
2023-05-07T10:36:57.360Z,459.00
2023-05-07T10:37:57.331Z,458.00
2023-05-07T10:38:57.328Z,460.00
2023-05-07T10:39:57.301Z,460.00
2023-05-07T10:40:57.327Z,462.00
2023-05-07T10:41:57.287Z,463.00
2023-05-07T10:42:57.330Z,462.00
2023-05-07T10:43:57.313Z,461.00
2023-05-07T10:44:57.273Z,463.00
2023-05-07T10:45:57.293Z,464.00
2023-05-07T10:46:57.325Z,463.00
2023-05-07T10:47:57.673Z,463.00
2023-05-07T10:48:57.300Z,461.00
2023-05-07T10:49:57.295Z,460.00
2023-05-07T10:50:57.346Z,461.00
2023-05-07T10:51:57.294Z,460.00
2023-05-07T10:52:57.270Z,460.00
2023-05-07T10:53:57.318Z,460.00
2023-05-07T10:54:57.250Z,460.00
2023-05-07T10:55:57.239Z,461.00
2023-05-07T10:56:57.190Z,458.00
2023-05-07T10:57:57.268Z,458.00
2023-05-07T10:58:57.270Z,456.00
2023-05-07T10:59:59.222Z,456.00
2023-05-07T11:00:57.187Z,455.00
2023-05-07T11:01:57.313Z,457.00
2023-05-07T11:02:57.308Z,456.00
2023-05-07T11:03:57.148Z,457.00
2023-05-07T11:04:57.183Z,458.00
2023-05-07T11:05:57.123Z,456.00
2023-05-07T11:06:57.222Z,455.00
2023-05-07T11:07:57.158Z,454.00
2023-05-07T11:08:57.136Z,456.00
2023-05-07T11:09:57.121Z,458.00
2023-05-07T11:10:57.104Z,457.00
2023-05-07T11:11:57.131Z,458.00
2023-05-07T11:12:57.189Z,462.00
2023-05-07T11:13:57.103Z,463.00
2023-05-07T11:14:57.130Z,463.00
2023-05-07T11:15:57.113Z,461.00
2023-05-07T11:16:57.135Z,460.00
2023-05-07T11:17:57.128Z,457.00
2023-05-07T11:18:57.108Z,456.00
2023-05-07T11:19:57.124Z,457.00
2023-05-07T11:20:57.127Z,457.00
2023-05-07T11:21:57.128Z,456.00
2023-05-07T11:22:57.120Z,456.00
2023-05-07T11:23:57.141Z,455.00
2023-05-07T11:24:57.139Z,459.00
2023-05-07T11:25:57.126Z,459.00
2023-05-07T11:26:57.186Z,459.00
2023-05-07T11:27:57.127Z,457.00
2023-05-07T11:28:57.153Z,459.00
2023-05-07T11:29:57.166Z,460.00
2023-05-07T11:30:57.174Z,458.00
2023-05-07T11:31:57.211Z,456.00
2023-05-07T11:32:57.259Z,454.00
2023-05-07T11:33:57.177Z,455.00
2023-05-07T11:34:57.234Z,456.00
2023-05-07T11:35:57.210Z,457.00
2023-05-07T11:36:57.182Z,457.00
2023-05-07T11:37:57.181Z,456.00
2023-05-07T11:38:57.252Z,454.00
2023-05-07T11:39:57.308Z,452.00
2023-05-07T11:40:57.289Z,450.00
2023-05-07T11:41:57.262Z,449.00
2023-05-07T11:42:57.335Z,447.00
2023-05-07T11:43:57.288Z,445.00
2023-05-07T11:44:57.258Z,445.00
2023-05-07T11:45:57.266Z,446.00
2023-05-07T11:46:57.681Z,448.00
2023-05-07T11:47:57.395Z,450.00
2023-05-07T11:48:57.363Z,451.00
2023-05-07T11:49:57.258Z,452.00
2023-05-07T11:50:57.297Z,453.00
2023-05-07T11:51:57.296Z,454.00
2023-05-07T11:52:57.410Z,454.00
2023-05-07T11:53:57.359Z,455.00
2023-05-07T11:54:57.354Z,455.00
2023-05-07T11:55:57.347Z,456.00
2023-05-07T11:56:57.377Z,456.00
2023-05-07T11:57:57.385Z,456.00
2023-05-07T11:58:57.363Z,456.00
2023-05-07T11:59:57.366Z,457.00
2023-05-07T12:00:57.352Z,457.00
2023-05-07T12:01:57.370Z,459.00
2023-05-07T12:02:57.443Z,457.00
2023-05-07T12:03:57.395Z,457.00
2023-05-07T12:04:57.393Z,457.00
2023-05-07T12:05:57.360Z,459.00
2023-05-07T12:06:57.369Z,459.00
2023-05-07T12:07:57.421Z,462.00
2023-05-07T12:08:57.388Z,463.00
2023-05-07T12:09:57.408Z,463.00
2023-05-07T12:10:57.395Z,461.00
2023-05-07T12:11:57.418Z,461.00
2023-05-07T12:12:57.479Z,462.00
2023-05-07T12:13:59.219Z,462.00
2023-05-07T12:14:57.428Z,462.00
2023-05-07T12:15:57.457Z,458.00
2023-05-07T12:16:57.507Z,458.00
2023-05-07T12:17:57.753Z,458.00
2023-05-07T12:18:57.496Z,457.00
2023-05-07T12:19:57.499Z,458.00
2023-05-07T12:20:57.509Z,459.00
2023-05-07T12:21:57.529Z,458.00
2023-05-07T12:22:57.543Z,459.00
2023-05-07T12:23:57.518Z,458.00
2023-05-07T12:24:57.585Z,458.00
2023-05-07T12:25:57.522Z,457.00
2023-05-07T12:26:57.550Z,455.00
2023-05-07T12:27:57.535Z,455.00
2023-05-07T12:28:57.539Z,458.00